createdAt,value
2022-10-14T00:00:03.377Z,17.85
2022-10-14T00:02:36.339Z,15.43
2022-10-14T00:05:09.372Z,14.13
2022-10-14T00:07:37.373Z,15.02
2022-10-14T00:10:07.261Z,15.98
2022-10-14T00:12:40.402Z,16.38
2022-10-14T00:15:14.469Z,15.77
2022-10-14T00:17:47.402Z,18.63
2022-10-14T00:20:20.356Z,15.80
2022-10-14T00:22:47.162Z,17.90
2022-10-14T00:25:20.393Z,17.02
2022-10-14T00:27:53.380Z,14.32
2022-10-14T00:30:27.402Z,16.00
2022-10-14T00:33:00.402Z,14.50
2022-10-14T00:35:27.334Z,14.90
2022-10-14T00:38:00.451Z,15.45
2022-10-14T00:40:33.427Z,13.30
2022-10-14T00:43:00.156Z,16.17
2022-10-14T00:45:26.955Z,14.48
2022-10-14T00:48:00.410Z,14.63
2022-10-14T00:50:33.411Z,16.65
2022-10-14T00:53:06.404Z,14.98
2022-10-14T00:55:40.444Z,15.40
2022-10-14T00:58:14.411Z,14.70
2022-10-14T01:00:41.826Z,13.80
2022-10-14T01:03:16.461Z,13.90
2022-10-14T01:05:54.556Z,13.07
2022-10-14T01:09:09.483Z,14.07
2022-10-14T01:11:47.431Z,16.65
2022-10-14T01:14:57.465Z,14.70
2022-10-14T01:17:36.919Z,13.95
2022-10-14T01:20:16.439Z,14.13
2022-10-14T01:23:12.500Z,12.68
2022-10-14T01:26:04.593Z,13.80
2022-10-14T01:28:59.574Z,15.88
2022-10-14T01:31:32.621Z,15.57
2022-10-14T01:34:09.498Z,17.20
2022-10-14T01:36:42.662Z,15.98
2022-10-14T01:39:30.483Z,17.00
2022-10-14T01:42:04.649Z,14.52
2022-10-14T01:44:40.492Z,17.77
2022-10-14T01:47:09.001Z,15.27
2022-10-14T01:49:51.500Z,15.98
2022-10-14T01:52:27.800Z,14.63
2022-10-14T01:55:06.518Z,15.95
2022-10-14T01:57:37.168Z,16.35
2022-10-14T02:00:12.502Z,15.05
2022-10-14T02:02:39.486Z,13.85
2022-10-14T02:05:20.573Z,13.07
2022-10-14T02:07:52.596Z,13.88
2022-10-14T02:10:55.988Z,13.63
2022-10-14T02:14:02.542Z,15.70
2022-10-14T02:16:47.566Z,15.88
2022-10-14T02:19:39.568Z,14.70
2022-10-14T02:22:15.706Z,17.45
2022-10-14T02:24:55.550Z,17.00
2022-10-14T02:27:26.074Z,15.25
2022-10-14T02:30:02.612Z,13.95
2022-10-14T02:32:37.562Z,13.15
2022-10-14T02:35:12.574Z,13.30
2022-10-14T02:37:40.265Z,14.13
2022-10-14T02:40:18.602Z,14.93
2022-10-14T02:42:45.907Z,13.48
2022-10-14T02:45:21.580Z,15.73
2022-10-14T02:47:54.723Z,18.25
2022-10-14T02:50:28.595Z,16.42
2022-10-14T02:52:55.344Z,13.77
2022-10-14T02:55:28.618Z,15.50
2022-10-14T02:58:01.596Z,18.27
2022-10-14T03:00:34.612Z,17.13
2022-10-14T03:03:01.436Z,17.90
2022-10-14T03:05:34.636Z,14.93
2022-10-14T03:08:07.619Z,15.48
2022-10-14T03:10:40.621Z,16.23
2022-10-14T03:13:07.576Z,14.93
2022-10-14T03:15:40.633Z,15.27
2022-10-14T03:18:21.591Z,17.92
2022-10-14T03:20:54.653Z,18.48
2022-10-14T03:23:22.267Z,14.50
2022-10-14T03:25:55.656Z,15.48
2022-10-14T03:28:22.402Z,13.40
2022-10-14T03:30:55.640Z,13.35
2022-10-14T03:33:25.907Z,13.48
2022-10-14T03:35:59.667Z,15.98
2022-10-14T03:38:26.572Z,13.60
2022-10-14T03:40:53.325Z,15.25
2022-10-14T03:43:26.669Z,14.13
2022-10-14T03:45:59.683Z,15.38
2022-10-14T03:48:26.490Z,15.73
2022-10-14T03:50:53.296Z,15.30
2022-10-14T03:53:26.703Z,13.05
2022-10-14T03:55:53.532Z,13.52
2022-10-14T03:58:20.415Z,10.60
2022-10-14T04:00:53.721Z,13.50
2022-10-14T04:03:20.473Z,11.52
2022-10-14T04:05:53.714Z,12.52
2022-10-14T04:08:26.713Z,12.07
2022-10-14T04:11:00.731Z,13.63
2022-10-14T04:13:33.731Z,13.50
2022-10-14T04:16:10.933Z,13.07
2022-10-14T04:18:44.771Z,10.57
2022-10-14T04:21:18.768Z,13.02
2022-10-14T04:23:45.767Z,12.82
2022-10-14T04:26:18.787Z,10.68
2022-10-14T04:28:45.624Z,10.23
2022-10-14T04:31:18.803Z,11.18
2022-10-14T04:33:45.577Z,9.55
2022-10-14T04:36:18.785Z,11.90
2022-10-14T04:38:51.751Z,9.55
2022-10-14T04:41:24.753Z,10.23
2022-10-14T04:43:51.637Z,10.15
2022-10-14T04:46:24.779Z,10.77
2022-10-14T04:48:57.774Z,11.70
2022-10-14T04:51:31.785Z,9.48
2022-10-14T04:54:04.774Z,16.65
2022-10-14T04:56:31.472Z,10.93
2022-10-14T04:59:04.819Z,16.83
2022-10-14T05:01:37.973Z,13.30
2022-10-14T05:04:04.809Z,18.60
2022-10-14T05:06:38.828Z,13.32
2022-10-14T05:09:12.815Z,14.20
2022-10-14T05:11:40.072Z,14.75
2022-10-14T05:14:07.071Z,14.40
2022-10-14T05:16:40.883Z,15.13
2022-10-14T05:19:13.842Z,14.05
2022-10-14T05:21:40.919Z,20.08
2022-10-14T05:24:13.851Z,16.23
2022-10-14T05:26:42.975Z,14.27
2022-10-14T05:29:18.852Z,11.60
2022-10-14T05:31:51.863Z,17.23
2022-10-14T05:34:18.664Z,17.13
2022-10-14T05:36:45.411Z,14.38
2022-10-14T05:39:18.897Z,14.50
2022-10-14T05:41:51.855Z,17.98
2022-10-14T05:44:24.904Z,17.73
2022-10-14T05:46:57.853Z,18.30
2022-10-14T05:49:24.763Z,16.83
2022-10-14T05:51:51.685Z,17.95
2022-10-14T05:54:24.879Z,17.30
2022-10-14T05:56:57.881Z,16.48
2022-10-14T05:59:30.892Z,15.63
2022-10-14T06:02:03.914Z,12.98
2022-10-14T06:04:30.670Z,18.70
2022-10-14T06:06:58.898Z,17.02
2022-10-14T06:09:31.908Z,14.57
2022-10-14T06:11:58.651Z,13.48
2022-10-14T06:14:25.372Z,17.13
2022-10-14T06:17:01.064Z,16.90
2022-10-14T06:19:27.853Z,13.70
2022-10-14T06:21:54.733Z,12.32
2022-10-14T06:24:28.069Z,12.13
2022-10-14T06:26:55.024Z,12.13
2022-10-14T06:29:26.203Z,9.18
2022-10-14T06:32:00.090Z,10.45
2022-10-14T06:34:27.869Z,8.65
2022-10-14T06:36:57.434Z,10.23
2022-10-14T06:39:35.054Z,10.55
2022-10-14T06:42:12.113Z,9.20
2022-10-14T06:44:45.957Z,9.55
2022-10-14T06:47:12.722Z,10.38
2022-10-14T06:49:45.967Z,11.25
2022-10-14T06:52:19.112Z,9.00
2022-10-14T06:54:53.037Z,8.60
2022-10-14T06:57:19.849Z,10.13
2022-10-14T06:59:46.597Z,7.82
2022-10-14T07:02:20.353Z,8.20
2022-10-14T07:04:47.394Z,7.95
2022-10-14T07:07:14.196Z,6.35
2022-10-14T07:09:48.108Z,7.10
2022-10-14T07:12:15.112Z,7.70
2022-10-14T07:14:42.029Z,9.65
2022-10-14T07:17:16.195Z,8.10
2022-10-14T07:19:43.012Z,8.43
2022-10-14T07:22:10.145Z,9.65
2022-10-14T07:24:43.159Z,9.43
2022-10-14T07:27:10.897Z,8.68
2022-10-14T07:29:37.850Z,10.52
2022-10-14T07:32:12.080Z,9.02
2022-10-14T07:34:45.078Z,10.30
2022-10-14T07:37:11.882Z,10.85
2022-10-14T07:39:38.678Z,10.05
2022-10-14T07:42:12.101Z,11.65
2022-10-14T07:44:46.095Z,11.05
2022-10-14T07:47:13.211Z,11.90
2022-10-14T07:49:46.105Z,11.98
2022-10-14T07:52:12.990Z,13.55
2022-10-14T07:54:46.126Z,10.60
2022-10-14T07:57:19.521Z,10.75
2022-10-14T07:59:46.800Z,18.10
2022-10-14T08:02:20.407Z,17.63
2022-10-14T08:04:47.592Z,16.75
2022-10-14T08:07:14.583Z,16.58
2022-10-14T08:09:48.306Z,15.18
2022-10-14T08:12:15.687Z,22.50
2022-10-14T08:14:49.166Z,17.58
2022-10-14T08:17:16.160Z,20.58
2022-10-14T08:19:42.964Z,24.42
2022-10-14T08:22:17.140Z,17.85
2022-10-14T08:24:57.312Z,17.60
2022-10-14T08:27:26.630Z,20.45
2022-10-14T08:29:54.270Z,17.45
2022-10-14T08:32:28.192Z,16.35
2022-10-14T08:35:02.132Z,26.88
2022-10-14T08:37:28.968Z,26.60
2022-10-14T08:40:10.161Z,20.00
2022-10-14T08:43:05.179Z,22.35
2022-10-14T08:45:36.857Z,23.88
2022-10-14T08:48:19.228Z,23.95
2022-10-14T08:50:54.731Z,20.55
2022-10-14T08:53:31.201Z,19.08
2022-10-14T08:56:00.596Z,16.27
2022-10-14T08:58:35.214Z,19.73
2022-10-14T09:01:16.177Z,21.77
2022-10-14T09:03:49.248Z,20.92
2022-10-14T09:06:24.485Z,15.57
2022-10-14T09:08:59.258Z,20.83
2022-10-14T09:15:23.276Z,18.05
2022-10-14T09:18:01.534Z,13.82
2022-10-14T09:23:19.498Z,13.43
2022-10-14T09:26:16.216Z,11.45
2022-10-14T09:28:51.463Z,11.02
2022-10-14T09:31:18.248Z,13.32
2022-10-14T09:33:55.403Z,13.00
2022-10-14T09:36:31.435Z,12.00
2022-10-14T09:39:39.508Z,10.88
2022-10-14T09:42:24.738Z,11.65
2022-10-14T09:45:21.283Z,11.55
2022-10-14T09:47:59.818Z,9.02
2022-10-14T09:50:39.315Z,12.63
2022-10-14T09:53:19.870Z,12.40
2022-10-14T09:56:00.243Z,11.05
2022-10-14T09:58:39.356Z,10.55
2022-10-14T10:01:19.273Z,11.25
2022-10-14T10:03:47.971Z,12.38
2022-10-14T10:06:27.295Z,9.95
2022-10-14T10:09:00.368Z,10.10
2022-10-14T10:11:37.967Z,10.18
2022-10-14T10:14:32.319Z,8.68
2022-10-14T10:17:08.795Z,9.50
2022-10-14T10:19:47.299Z,11.48
2022-10-14T10:22:20.853Z,10.77
2022-10-14T10:24:54.288Z,9.63
2022-10-14T10:27:37.308Z,9.88
2022-10-14T10:30:30.131Z,8.85
2022-10-14T10:33:34.342Z,8.98
2022-10-14T10:36:29.690Z,9.77
2022-10-14T10:39:26.320Z,8.80
2022-10-14T10:42:04.299Z,7.05
2022-10-14T10:45:22.446Z,8.55
2022-10-14T10:47:57.228Z,8.90
2022-10-14T10:50:34.473Z,7.75
2022-10-14T10:53:16.378Z,8.20
2022-10-14T10:55:49.517Z,9.02
2022-10-14T10:58:25.449Z,8.88
2022-10-14T11:01:01.838Z,7.05
2022-10-14T11:03:41.434Z,7.00
2022-10-14T11:06:48.480Z,6.50
2022-10-14T11:10:22.486Z,10.85
2022-10-14T11:12:59.673Z,12.27
2022-10-14T11:15:48.393Z,10.93
2022-10-14T11:19:05.474Z,8.98
2022-10-14T11:21:46.491Z,10.18
2022-10-14T11:24:26.900Z,7.95
2022-10-14T11:27:03.454Z,8.65
2022-10-14T11:29:41.431Z,8.25
2022-10-14T11:32:47.078Z,8.88
2022-10-14T11:35:48.450Z,8.52
2022-10-14T11:38:23.749Z,7.43
2022-10-14T11:41:19.450Z,7.30
2022-10-14T11:43:49.031Z,6.82
2022-10-14T11:46:26.426Z,6.03
2022-10-14T11:49:03.807Z,6.35
2022-10-14T11:51:39.381Z,6.10
2022-10-14T11:54:19.450Z,6.38
2022-10-14T11:57:07.450Z,4.80
2022-10-14T11:59:59.979Z,5.60
2022-10-14T12:03:01.519Z,5.43
2022-10-14T12:05:46.465Z,6.20
2022-10-14T12:08:35.730Z,6.45
2022-10-14T12:11:21.434Z,5.78
2022-10-14T12:13:54.726Z,6.53
2022-10-14T12:16:30.481Z,6.28
2022-10-14T12:18:57.814Z,6.25
2022-10-14T12:21:38.504Z,7.70
2022-10-14T12:24:18.455Z,6.70
2022-10-14T12:26:57.333Z,6.38
2022-10-14T12:29:42.526Z,8.70
2022-10-14T12:32:30.500Z,9.07
2022-10-14T12:34:58.955Z,10.15
2022-10-14T12:37:39.510Z,10.13
2022-10-14T12:40:12.850Z,9.18
2022-10-14T12:42:48.801Z,8.55
2022-10-14T12:45:35.724Z,8.88
2022-10-14T12:48:11.518Z,8.07
2022-10-14T12:50:47.523Z,8.15
2022-10-14T12:53:30.600Z,5.45
2022-10-14T12:56:08.551Z,6.65
2022-10-14T12:59:00.587Z,7.82
2022-10-14T13:01:36.501Z,8.27
2022-10-14T13:04:17.390Z,9.23
2022-10-14T13:07:38.831Z,8.18
2022-10-14T13:10:33.577Z,14.50
2022-10-14T13:15:51.309Z,9.88
2022-10-14T13:18:41.638Z,8.68
2022-10-14T13:21:11.040Z,7.65
2022-10-14T13:23:53.595Z,7.10
2022-10-14T13:29:18.559Z,6.65
2022-10-14T13:32:22.708Z,7.20
2022-10-14T13:35:19.361Z,6.88
2022-10-14T13:38:05.670Z,6.57
2022-10-14T13:40:36.572Z,6.57
2022-10-14T13:43:45.752Z,6.88
2022-10-14T13:46:22.609Z,7.55
2022-10-14T13:48:58.713Z,12.68
2022-10-14T13:51:47.694Z,14.35
2022-10-14T13:54:22.716Z,14.55
2022-10-14T13:58:07.805Z,14.38
2022-10-14T14:00:40.324Z,15.20
2022-10-14T14:02:57.649Z,15.88
2022-10-14T14:05:38.606Z,16.20
2022-10-14T14:08:38.783Z,18.00
2022-10-14T14:11:16.839Z,16.92
2022-10-14T14:14:29.477Z,16.88
2022-10-14T14:17:05.655Z,15.10
2022-10-14T14:19:41.776Z,15.30
2022-10-14T14:22:20.777Z,16.98
2022-10-14T14:24:58.133Z,15.13
2022-10-14T14:27:27.464Z,12.52
2022-10-14T14:29:55.428Z,14.60
2022-10-14T14:32:36.687Z,13.25
2022-10-14T14:35:06.283Z,11.20
2022-10-14T14:40:32.668Z,18.20
2022-10-14T14:43:08.761Z,16.67
2022-10-14T14:45:42.652Z,18.20
2022-10-14T14:48:19.720Z,13.23
2022-10-14T14:50:55.684Z,14.85
2022-10-14T14:53:28.811Z,13.70
2022-10-14T14:56:25.714Z,14.27
2022-10-14T14:58:55.735Z,13.10
2022-10-14T15:01:25.417Z,13.25
2022-10-14T15:04:12.459Z,13.35
2022-10-14T15:06:50.923Z,14.02
2022-10-14T15:09:30.746Z,11.10
2022-10-14T15:12:01.008Z,11.38
2022-10-14T15:14:30.594Z,10.85
2022-10-14T15:17:03.727Z,10.13
2022-10-14T15:19:43.795Z,10.05
2022-10-14T15:22:23.959Z,10.32
2022-10-14T15:25:30.736Z,7.05
2022-10-14T15:28:05.751Z,14.15
2022-10-14T15:30:38.502Z,10.10
2022-10-14T15:33:23.787Z,13.02
2022-10-14T15:36:05.836Z,11.23
2022-10-14T15:38:39.753Z,8.73
2022-10-14T15:41:12.795Z,10.35
2022-10-14T15:43:45.369Z,10.05
2022-10-14T15:46:45.795Z,9.93
2022-10-14T15:49:16.718Z,8.82
2022-10-14T15:51:49.785Z,11.15
2022-10-14T15:54:23.786Z,10.48
2022-10-14T15:56:50.606Z,9.55
2022-10-14T15:59:23.773Z,9.20
2022-10-14T16:01:51.214Z,12.52
2022-10-14T16:04:30.831Z,9.75
2022-10-14T16:06:57.690Z,8.50
2022-10-14T16:09:27.718Z,9.70
2022-10-14T16:12:03.804Z,8.80
2022-10-14T16:14:36.819Z,8.85
2022-10-14T16:17:09.859Z,8.55
2022-10-14T16:19:42.816Z,9.70
2022-10-14T16:22:09.583Z,13.57
2022-10-14T16:24:36.448Z,9.45
2022-10-14T16:27:09.895Z,9.63
2022-10-14T16:29:36.697Z,8.20
2022-10-14T16:32:09.809Z,7.60
2022-10-14T16:34:36.628Z,7.45
2022-10-14T16:37:09.869Z,6.07
2022-10-14T16:39:44.851Z,4.78
2022-10-14T16:42:11.634Z,5.75
2022-10-14T16:44:45.906Z,4.43
2022-10-14T16:47:19.465Z,3.90
2022-10-14T16:49:55.862Z,3.97
2022-10-14T16:52:23.577Z,3.70
2022-10-14T16:54:56.869Z,5.85
2022-10-14T16:57:31.915Z,4.78
2022-10-14T17:00:06.010Z,8.95
2022-10-14T17:02:32.835Z,9.88
2022-10-14T17:05:05.879Z,9.02
2022-10-14T17:07:39.932Z,8.93
2022-10-14T17:10:13.964Z,6.50
2022-10-14T17:12:42.330Z,6.22
2022-10-14T17:15:15.910Z,5.60
2022-10-14T17:17:48.921Z,5.25
2022-10-14T17:20:26.898Z,5.13
2022-10-14T17:22:53.721Z,8.30
2022-10-14T17:25:26.989Z,6.53
2022-10-14T17:30:28.845Z,5.68
2022-10-14T17:32:55.548Z,5.22
2022-10-14T17:35:29.976Z,6.43
2022-10-14T17:38:02.977Z,6.30
2022-10-14T17:40:33.731Z,5.50
2022-10-14T17:43:01.324Z,5.93
2022-10-14T17:45:34.943Z,6.72
2022-10-14T17:48:01.723Z,8.35
2022-10-14T17:50:34.967Z,6.18
2022-10-14T17:53:08.969Z,8.10
2022-10-14T17:55:42.953Z,8.32
2022-10-14T17:58:09.873Z,6.72
2022-10-14T18:00:43.009Z,5.95
2022-10-14T18:03:16.955Z,5.47
2022-10-14T18:05:48.059Z,5.68
2022-10-14T18:08:22.997Z,5.00
2022-10-14T18:10:57.043Z,5.65
2022-10-14T18:13:24.054Z,4.22
2022-10-14T18:15:56.986Z,6.88
2022-10-14T18:18:24.163Z,5.93
2022-10-14T18:21:04.024Z,6.25
2022-10-14T18:23:37.495Z,5.07
2022-10-14T18:26:13.623Z,7.32
2022-10-14T18:28:46.889Z,6.75
2022-10-14T18:31:23.006Z,6.25
2022-10-14T18:33:51.544Z,7.63
2022-10-14T18:36:29.050Z,6.47
2022-10-14T18:39:01.549Z,6.40
2022-10-14T18:41:36.057Z,7.22
2022-10-14T18:44:04.001Z,5.97
2022-10-14T18:46:33.259Z,7.93
2022-10-14T18:49:08.094Z,6.95
2022-10-14T18:51:38.237Z,6.93
2022-10-14T18:54:25.082Z,9.13
2022-10-14T18:56:59.056Z,8.43
2022-10-14T18:59:34.159Z,7.43
2022-10-14T19:02:01.625Z,6.85
2022-10-14T19:04:43.190Z,8.18
2022-10-14T19:07:10.163Z,8.65
2022-10-14T19:09:37.386Z,8.40
2022-10-14T19:12:31.149Z,8.48
2022-10-14T19:15:05.238Z,8.90
2022-10-14T19:17:32.771Z,7.80
2022-10-14T19:20:00.939Z,7.28
2022-10-14T19:22:34.319Z,8.43
2022-10-14T19:25:08.241Z,9.05
2022-10-14T19:27:35.021Z,6.75
2022-10-14T19:30:01.955Z,7.63
2022-10-14T19:32:35.172Z,7.65
2022-10-14T19:35:02.248Z,7.70
2022-10-14T19:37:36.241Z,6.93
2022-10-14T19:40:04.055Z,7.90
2022-10-14T19:42:30.978Z,8.45
2022-10-14T19:45:04.146Z,7.88
2022-10-14T19:47:30.896Z,8.73
2022-10-14T19:50:04.161Z,7.05
2022-10-14T19:52:31.007Z,8.55
2022-10-14T19:55:04.225Z,9.07
2022-10-14T19:57:31.009Z,9.85
2022-10-14T19:59:57.727Z,9.43
2022-10-14T20:02:31.317Z,8.85
2022-10-14T20:04:58.154Z,8.70
2022-10-14T20:07:31.259Z,9.57
2022-10-14T20:10:01.951Z,9.98
2022-10-14T20:12:29.744Z,10.40
2022-10-14T20:15:03.235Z,9.80
2022-10-14T20:17:29.972Z,9.70
2022-10-14T20:19:56.733Z,7.82
2022-10-14T20:22:30.194Z,10.80
2022-10-14T20:24:56.960Z,8.73
2022-10-14T20:27:24.193Z,14.55
2022-10-14T20:29:58.291Z,9.95
2022-10-14T20:32:32.243Z,10.32
2022-10-14T20:35:05.230Z,9.27
2022-10-14T20:37:32.671Z,9.90
2022-10-14T20:39:59.780Z,9.85
2022-10-14T20:42:33.220Z,8.77
2022-10-14T20:45:07.218Z,8.80
2022-10-14T20:47:41.237Z,9.98
2022-10-14T20:50:08.723Z,10.15
2022-10-14T20:52:35.510Z,10.90
2022-10-14T20:55:09.319Z,10.98
2022-10-14T20:57:42.228Z,9.75
2022-10-14T21:00:16.261Z,8.48
2022-10-14T21:05:21.250Z,10.07
2022-10-14T21:07:47.977Z,10.95
2022-10-14T21:10:21.220Z,10.48
2022-10-14T21:12:48.950Z,11.02
2022-10-14T21:15:22.268Z,9.73
2022-10-14T21:17:50.024Z,11.27
2022-10-14T21:20:23.317Z,9.02
2022-10-14T21:22:50.131Z,11.68
2022-10-14T21:25:23.225Z,8.07
2022-10-14T21:27:56.278Z,9.13
2022-10-14T21:30:23.098Z,9.60
2022-10-14T21:32:56.275Z,8.57
2022-10-14T21:35:23.159Z,10.10
2022-10-14T21:37:59.248Z,9.27
2022-10-14T21:40:26.030Z,9.82
2022-10-14T21:42:59.321Z,9.60
2022-10-14T21:45:26.431Z,10.02
2022-10-14T21:47:55.453Z,9.90
2022-10-14T21:50:29.305Z,9.23
2022-10-14T21:53:02.463Z,9.07
2022-10-14T21:55:29.283Z,10.40
2022-10-14T21:58:03.346Z,9.18
2022-10-14T22:00:30.122Z,9.13
2022-10-14T22:03:03.345Z,8.15
2022-10-14T22:05:36.408Z,8.52
2022-10-14T22:08:03.312Z,8.75
2022-10-14T22:10:48.330Z,8.25
2022-10-14T22:13:15.907Z,10.75
2022-10-14T22:15:43.371Z,9.65
2022-10-14T22:18:17.377Z,10.07
2022-10-14T22:20:44.278Z,8.20
2022-10-14T22:23:11.102Z,10.15
2022-10-14T22:25:44.368Z,8.55
2022-10-14T22:28:17.448Z,8.90
2022-10-14T22:30:44.259Z,10.77
2022-10-14T22:33:17.385Z,9.57
2022-10-14T22:35:50.386Z,7.75
2022-10-14T22:38:19.538Z,8.90
2022-10-14T22:40:53.533Z,9.95
2022-10-14T22:43:20.370Z,11.55
2022-10-14T22:45:53.405Z,7.95
2022-10-14T22:48:20.156Z,10.48
2022-10-14T22:50:46.946Z,10.65
2022-10-14T22:53:20.439Z,10.57
2022-10-14T22:55:54.219Z,9.85
2022-10-14T22:58:27.392Z,10.98
2022-10-14T23:01:01.409Z,9.77
2022-10-14T23:03:28.779Z,7.53
2022-10-14T23:06:10.431Z,12.13
2022-10-14T23:08:38.041Z,9.77
2022-10-14T23:11:12.456Z,10.45
2022-10-14T23:13:39.427Z,9.20
2022-10-14T23:16:14.407Z,10.68
2022-10-14T23:21:21.559Z,10.52
2022-10-14T23:23:49.683Z,11.68
2022-10-14T23:26:27.492Z,12.30
2022-10-14T23:28:56.086Z,11.38
2022-10-14T23:31:32.502Z,13.95
2022-10-14T23:34:01.268Z,14.88
2022-10-14T23:36:34.443Z,12.32
2022-10-14T23:39:01.287Z,14.05
2022-10-14T23:41:34.520Z,10.98
2022-10-14T23:44:01.418Z,14.02
2022-10-14T23:46:28.212Z,12.30
2022-10-14T23:49:07.222Z,15.57
2022-10-14T23:51:54.536Z,12.70
2022-10-14T23:54:28.522Z,9.95
2022-10-14T23:56:55.322Z,13.68
2022-10-14T23:59:28.530Z,10.60
